createdAt,value
2022-08-29T00:00:51.487Z,98904.88
2022-08-29T00:03:22.119Z,98882.25
2022-08-29T00:05:51.101Z,98910.84
2022-08-29T00:08:21.158Z,98907.63
2022-08-29T00:10:49.575Z,98919.16
2022-08-29T00:13:17.997Z,98918.34
2022-08-29T00:15:49.367Z,98911.25
2022-08-29T00:18:19.551Z,98917.66
2022-08-29T00:20:48.980Z,98922.44
2022-08-29T00:23:17.961Z,98929.06
2022-08-29T00:25:50.039Z,98929.75
2022-08-29T00:28:20.825Z,98900.09
2022-08-29T00:30:50.084Z,98932.38
2022-08-29T00:33:19.976Z,98930.53
2022-08-29T00:35:53.281Z,98938.78
2022-08-29T00:38:21.669Z,98932.66
2022-08-29T00:40:59.955Z,98940.44
2022-08-29T00:43:30.747Z,98933.19
2022-08-29T00:46:09.119Z,98928.63
2022-08-29T00:48:39.240Z,98944.25
2022-08-29T00:51:13.709Z,98939.06
2022-08-29T00:53:49.247Z,98938.22
2022-08-29T00:56:19.291Z,98944.81
2022-08-29T00:58:52.332Z,98934.03
2022-08-29T01:01:23.082Z,98940.13
2022-08-29T01:03:52.499Z,98937.34
2022-08-29T01:06:22.228Z,98935.00
2022-08-29T01:08:57.605Z,98940.94
2022-08-29T01:11:47.835Z,98937.56
2022-08-29T01:14:17.480Z,98926.06
2022-08-29T01:16:47.787Z,98933.16
2022-08-29T01:19:26.253Z,98937.66
2022-08-29T01:22:03.860Z,98894.78
2022-08-29T01:24:40.500Z,98892.66
2022-08-29T01:27:12.113Z,98835.72
2022-08-29T01:29:41.336Z,98811.53
2022-08-29T01:32:09.706Z,98840.84
2022-08-29T01:34:38.107Z,98864.53
2022-08-29T01:37:08.705Z,98882.25
2022-08-29T01:39:43.896Z,98893.25
2022-08-29T01:42:15.135Z,98913.34
2022-08-29T01:44:49.736Z,98922.19
2022-08-29T01:47:19.443Z,98920.38
2022-08-29T01:49:48.326Z,98936.28
2022-08-29T01:52:16.944Z,98942.53
2022-08-29T01:54:47.317Z,98941.50
2022-08-29T01:57:17.263Z,98945.69
2022-08-29T01:59:46.234Z,98941.50
2022-08-29T02:02:18.287Z,98940.00
2022-08-29T02:04:47.325Z,98935.94
2022-08-29T02:07:17.436Z,98951.22
2022-08-29T02:09:48.330Z,98943.34
2022-08-29T02:12:17.535Z,98945.13
2022-08-29T02:14:46.358Z,98934.72
2022-08-29T02:17:14.950Z,98939.28
2022-08-29T02:19:44.060Z,98936.56
2022-08-29T02:22:12.602Z,98922.72
2022-08-29T02:24:41.295Z,98909.44
2022-08-29T02:27:12.479Z,98903.16
2022-08-29T02:29:41.028Z,98893.81
2022-08-29T02:32:15.172Z,98895.53
2022-08-29T02:34:47.647Z,98895.13
2022-08-29T02:37:17.807Z,98897.22
2022-08-29T02:39:46.184Z,98880.00
2022-08-29T02:42:15.887Z,98853.53
2022-08-29T02:44:44.202Z,98856.28
2022-08-29T02:47:14.591Z,98878.09
2022-08-29T02:49:43.702Z,98887.44
2022-08-29T02:52:12.619Z,98907.34
2022-08-29T02:54:41.515Z,98907.41
2022-08-29T02:57:09.908Z,98915.72
2022-08-29T02:59:39.679Z,98928.47
2022-08-29T03:02:08.151Z,98934.97
2022-08-29T03:04:36.516Z,98939.31
2022-08-29T03:07:05.450Z,98937.09
2022-08-29T03:09:33.822Z,98940.97
2022-08-29T03:12:04.891Z,98946.16
2022-08-29T03:14:33.261Z,98942.59
2022-08-29T03:17:02.963Z,98930.38
2022-08-29T03:19:31.379Z,98927.66
2022-08-29T03:22:06.284Z,98923.41
2022-08-29T03:24:35.612Z,98932.16
2022-08-29T03:27:04.186Z,98937.69
2022-08-29T03:29:32.710Z,98936.75
2022-08-29T03:32:01.324Z,98940.44
2022-08-29T03:34:31.058Z,98937.34
2022-08-29T03:36:59.695Z,98945.63
2022-08-29T03:39:29.396Z,98947.38
2022-08-29T03:41:58.359Z,98941.94
2022-08-29T03:44:27.156Z,98956.47
2022-08-29T03:46:56.987Z,98952.28
2022-08-29T03:49:25.787Z,98937.88
2022-08-29T03:51:56.044Z,98943.72
2022-08-29T03:54:24.858Z,98946.81
2022-08-29T03:56:53.287Z,98956.00
2022-08-29T03:59:21.660Z,98968.88
2022-08-29T04:01:50.048Z,98969.25
2022-08-29T04:04:34.572Z,98966.78
2022-08-29T04:07:06.336Z,98966.16
2022-08-29T04:09:34.775Z,98969.09
2022-08-29T04:12:03.620Z,98966.88
2022-08-29T04:14:32.401Z,98970.16
2022-08-29T04:17:01.169Z,98969.56
2022-08-29T04:19:29.524Z,98975.59
2022-08-29T04:21:58.200Z,98975.84
2022-08-29T04:24:27.899Z,98980.44
2022-08-29T04:26:56.587Z,98972.06
2022-08-29T04:29:25.882Z,98980.34
2022-08-29T04:31:54.273Z,98986.94
2022-08-29T04:34:25.331Z,98992.13
2022-08-29T04:36:53.635Z,98979.84
2022-08-29T04:39:23.647Z,98984.00
2022-08-29T04:41:53.348Z,98970.50
2022-08-29T04:44:21.732Z,98979.94
2022-08-29T04:46:50.101Z,98976.03
2022-08-29T04:49:18.725Z,98977.47
2022-08-29T04:51:47.145Z,98971.22
2022-08-29T04:54:15.838Z,98989.56
2022-08-29T04:56:47.370Z,98976.31
2022-08-29T04:59:17.783Z,98971.94
2022-08-29T05:01:46.913Z,98985.88
2022-08-29T05:04:15.259Z,98989.41
2022-08-29T05:06:43.753Z,98981.50
2022-08-29T05:09:12.107Z,98978.19
2022-08-29T05:11:41.416Z,98982.00
2022-08-29T05:14:10.075Z,98993.78
2022-08-29T05:16:39.855Z,98992.84
2022-08-29T05:19:09.671Z,98984.47
2022-08-29T05:21:40.486Z,98987.19
2022-08-29T05:24:12.820Z,98984.69
2022-08-29T05:26:44.089Z,98979.34
2022-08-29T05:29:14.433Z,98979.69
2022-08-29T05:31:45.803Z,98964.84
2022-08-29T05:34:32.325Z,98968.38
2022-08-29T05:37:05.503Z,98966.94
2022-08-29T05:39:34.826Z,98969.09
2022-08-29T05:42:03.769Z,98952.09
2022-08-29T05:44:35.305Z,98951.84
2022-08-29T05:47:06.662Z,98943.59
2022-08-29T05:49:37.107Z,98936.88
2022-08-29T05:52:07.223Z,98921.84
2022-08-29T05:54:41.208Z,98918.13
2022-08-29T05:57:14.212Z,98910.53
2022-08-29T05:59:45.360Z,98913.03
2022-08-29T06:02:15.194Z,98917.72
2022-08-29T06:04:44.095Z,98917.25
2022-08-29T06:07:12.657Z,98915.09
2022-08-29T06:09:42.670Z,98845.41
2022-08-29T06:14:40.441Z,98803.38
2022-08-29T06:17:10.472Z,98805.19
2022-08-29T06:19:40.939Z,98815.34
2022-08-29T06:22:10.710Z,98821.91
2022-08-29T06:24:40.324Z,98831.47
2022-08-29T06:27:14.106Z,98818.94
2022-08-29T06:29:43.952Z,98817.06
2022-08-29T06:32:12.880Z,98813.88
2022-08-29T06:34:43.004Z,98813.75
2022-08-29T06:37:11.376Z,98829.44
2022-08-29T06:39:39.916Z,98844.78
2022-08-29T06:42:09.728Z,98853.81
2022-08-29T06:44:42.477Z,98869.91
2022-08-29T06:47:13.101Z,98868.19
2022-08-29T06:49:42.898Z,98864.03
2022-08-29T06:52:11.287Z,98863.53
2022-08-29T06:54:39.818Z,98851.28
2022-08-29T06:57:08.356Z,98850.38
2022-08-29T06:59:36.748Z,98852.13
2022-08-29T07:02:05.558Z,98850.94
2022-08-29T07:04:33.919Z,98829.69
2022-08-29T07:07:07.334Z,98849.31
2022-08-29T07:09:35.683Z,98857.34
2022-08-29T07:12:05.956Z,98860.47
2022-08-29T07:14:34.302Z,98861.13
2022-08-29T07:17:02.664Z,98869.84
2022-08-29T07:19:30.991Z,98863.50
2022-08-29T07:22:00.227Z,98862.28
2022-08-29T07:24:30.004Z,98864.75
2022-08-29T07:26:58.413Z,98850.75
2022-08-29T07:29:26.765Z,98848.59
2022-08-29T07:31:55.144Z,98864.66
2022-08-29T07:34:23.469Z,98865.22
2022-08-29T07:36:51.809Z,98857.97
2022-08-29T07:39:24.008Z,98839.06
2022-08-29T07:41:53.682Z,98859.03
2022-08-29T07:44:22.018Z,98850.81
2022-08-29T07:46:50.335Z,98861.94
2022-08-29T07:49:18.759Z,98861.28
2022-08-29T07:51:47.889Z,98868.50
2022-08-29T07:54:18.730Z,98856.22
2022-08-29T07:56:48.728Z,98854.72
2022-08-29T07:59:20.059Z,98852.78
2022-08-29T08:01:51.558Z,98857.91
2022-08-29T08:04:20.488Z,98839.19
2022-08-29T08:06:52.626Z,98855.81
2022-08-29T08:09:21.004Z,98849.81
2022-08-29T08:11:49.470Z,98858.94
2022-08-29T08:14:19.276Z,98851.00
2022-08-29T08:16:47.762Z,98854.00
2022-08-29T08:19:17.003Z,98850.47
2022-08-29T08:21:49.592Z,98853.72
2022-08-29T08:24:19.787Z,98851.00
2022-08-29T08:26:48.947Z,98855.94
2022-08-29T08:29:19.361Z,98862.84
2022-08-29T08:31:49.849Z,98851.84
2022-08-29T08:34:19.263Z,98858.66
2022-08-29T08:36:47.693Z,98853.28
2022-08-29T08:39:16.532Z,98846.25
2022-08-29T08:41:57.155Z,98852.13
2022-08-29T08:44:54.112Z,98857.94
2022-08-29T08:47:28.508Z,98852.41
2022-08-29T08:50:01.398Z,98854.94
2022-08-29T08:52:38.761Z,98850.41
2022-08-29T08:55:19.587Z,98838.81
2022-08-29T08:57:53.820Z,98849.56
2022-08-29T09:00:23.625Z,98845.16
2022-08-29T09:03:05.082Z,98853.25
2022-08-29T09:05:49.425Z,98854.88
2022-08-29T09:08:29.828Z,98853.34
2022-08-29T09:11:03.110Z,98858.50
2022-08-29T09:13:40.653Z,98862.06
2022-08-29T09:16:18.858Z,98864.25
2022-08-29T09:18:52.842Z,98864.97
2022-08-29T09:21:40.598Z,98863.03
2022-08-29T09:24:18.960Z,98861.22
2022-08-29T09:26:47.469Z,98864.06
2022-08-29T09:29:20.984Z,98866.53
2022-08-29T09:32:08.387Z,98853.38
2022-08-29T09:37:30.240Z,98861.47
2022-08-29T09:40:02.974Z,98844.50
2022-08-29T09:42:35.379Z,98854.81
2022-08-29T09:45:05.360Z,98863.03
2022-08-29T09:47:35.625Z,98852.22
2022-08-29T09:50:12.070Z,98847.53
2022-08-29T09:52:51.085Z,98850.47
2022-08-29T09:55:28.477Z,98847.56
2022-08-29T09:58:01.666Z,98842.34
2022-08-29T10:00:34.487Z,98845.84
2022-08-29T10:03:06.324Z,98851.06
2022-08-29T10:05:41.700Z,98839.19
2022-08-29T10:08:26.568Z,98841.13
2022-08-29T10:11:03.773Z,98833.44
2022-08-29T10:13:38.991Z,98838.53
2022-08-29T10:16:17.866Z,98833.88
2022-08-29T10:18:51.922Z,98842.50
2022-08-29T10:21:32.213Z,98839.78
2022-08-29T10:24:36.096Z,98840.56
2022-08-29T10:27:15.760Z,98827.16
2022-08-29T10:29:56.293Z,98849.88
2022-08-29T10:32:37.161Z,98842.00
2022-08-29T10:35:15.978Z,98843.66
2022-08-29T10:37:53.640Z,98841.53
2022-08-29T10:40:28.323Z,98818.72
2022-08-29T10:43:16.834Z,98832.03
2022-08-29T10:45:57.639Z,98831.88
2022-08-29T10:48:30.956Z,98831.81
2022-08-29T10:51:17.977Z,98830.88
2022-08-29T10:53:48.650Z,98831.50
2022-08-29T10:56:23.103Z,98834.16
2022-08-29T10:59:04.170Z,98831.19
2022-08-29T11:01:38.322Z,98822.59
2022-08-29T11:04:17.563Z,98835.59
2022-08-29T11:06:54.304Z,98829.09
2022-08-29T11:09:25.405Z,98825.25
2022-08-29T11:12:00.522Z,98811.97
2022-08-29T11:14:31.078Z,98816.53
2022-08-29T11:16:59.679Z,98813.09
2022-08-29T11:19:33.764Z,98809.22
2022-08-29T11:22:05.997Z,98802.59
2022-08-29T11:24:37.373Z,98806.19
2022-08-29T11:27:09.109Z,98806.06
2022-08-29T11:29:40.412Z,98803.56
2022-08-29T11:32:10.705Z,98805.56
2022-08-29T11:34:46.924Z,98808.75
2022-08-29T11:37:26.967Z,98815.66
2022-08-29T11:39:58.588Z,98807.63
2022-08-29T11:45:24.811Z,98806.25
2022-08-29T11:47:59.354Z,98807.47
2022-08-29T11:50:32.570Z,98794.00
2022-08-29T11:53:07.999Z,98796.38
2022-08-29T11:55:38.378Z,98802.50
2022-08-29T11:58:11.314Z,98801.91
2022-08-29T12:00:42.512Z,98792.81
2022-08-29T12:03:29.809Z,98790.63
2022-08-29T12:06:00.473Z,98798.66
2022-08-29T12:08:37.219Z,98792.75
2022-08-29T12:11:06.823Z,98797.66
2022-08-29T12:14:07.911Z,98788.31
2022-08-29T12:16:53.730Z,98791.53
2022-08-29T12:19:40.756Z,98793.69
2022-08-29T12:22:22.455Z,98793.78
2022-08-29T12:24:57.880Z,98776.34
2022-08-29T12:27:47.332Z,98775.00
2022-08-29T12:30:15.444Z,98777.94
2022-08-29T12:32:52.910Z,98784.84
2022-08-29T12:35:28.045Z,98781.75
2022-08-29T12:38:03.402Z,98774.81
2022-08-29T12:40:41.935Z,98762.28
2022-08-29T12:43:18.820Z,98773.63
2022-08-29T12:45:48.099Z,98772.59
2022-08-29T12:48:20.632Z,98764.69
2022-08-29T12:50:50.628Z,98760.47
2022-08-29T12:53:20.113Z,98761.03
2022-08-29T12:55:51.197Z,98761.91
2022-08-29T12:58:35.936Z,98762.34
2022-08-29T13:01:05.094Z,98750.06
2022-08-29T13:03:33.313Z,98748.16
2022-08-29T13:06:05.909Z,98742.59
2022-08-29T13:08:37.091Z,98750.84
2022-08-29T13:11:07.735Z,98741.94
2022-08-29T13:13:36.705Z,98736.50
2022-08-29T13:16:05.748Z,98735.69
2022-08-29T13:18:53.686Z,98738.00
2022-08-29T13:21:25.545Z,98728.81
2022-08-29T13:24:01.733Z,98734.59
2022-08-29T13:26:34.097Z,98730.66
2022-08-29T13:29:14.421Z,98726.28
2022-08-29T13:31:42.556Z,98728.44
2022-08-29T13:34:15.662Z,98727.69
2022-08-29T13:36:46.332Z,98722.63
2022-08-29T13:39:32.434Z,98728.13
2022-08-29T13:42:19.074Z,98725.72
2022-08-29T13:44:53.913Z,98725.06
2022-08-29T13:47:23.578Z,98721.06
2022-08-29T13:49:52.063Z,98714.53
2022-08-29T13:52:20.627Z,98720.19
2022-08-29T13:54:48.714Z,98718.38
2022-08-29T13:57:20.626Z,98711.69
2022-08-29T13:59:48.855Z,98708.63
2022-08-29T14:02:17.126Z,98709.56
2022-08-29T14:04:48.083Z,98714.31
2022-08-29T14:07:19.023Z,98713.50
2022-08-29T14:09:47.722Z,98698.50
2022-08-29T14:12:16.246Z,98706.34
2022-08-29T14:14:46.737Z,98705.34
2022-08-29T14:17:18.702Z,98698.34
2022-08-29T14:19:47.099Z,98701.44
2022-08-29T14:22:15.194Z,98696.88
2022-08-29T14:24:51.266Z,98693.63
2022-08-29T14:27:19.937Z,98691.78
2022-08-29T14:29:51.114Z,98685.34
2022-08-29T14:32:19.239Z,98690.16
2022-08-29T14:34:50.948Z,98676.28
2022-08-29T14:37:19.881Z,98686.91
2022-08-29T14:39:49.966Z,98673.16
2022-08-29T14:42:18.847Z,98673.69
2022-08-29T14:44:46.913Z,98672.06
2022-08-29T14:47:16.710Z,98674.84
2022-08-29T14:49:44.753Z,98672.25
2022-08-29T14:52:14.924Z,98664.84
2022-08-29T14:54:43.546Z,98667.16
2022-08-29T14:57:12.362Z,98668.97
2022-08-29T14:59:40.630Z,98671.72
2022-08-29T15:02:09.830Z,98665.66
2022-08-29T15:04:39.403Z,98666.84
2022-08-29T15:07:08.146Z,98654.38
2022-08-29T15:09:36.211Z,98634.06
2022-08-29T15:12:04.662Z,98666.00
2022-08-29T15:14:34.273Z,98662.63
2022-08-29T15:17:02.293Z,98658.06
2022-08-29T15:20:31.879Z,98658.56
2022-08-29T15:22:20.566Z,98650.09
2022-08-29T15:24:50.045Z,98637.78
2022-08-29T15:27:18.138Z,98639.22
2022-08-29T15:29:46.279Z,98639.56
2022-08-29T15:32:14.854Z,98633.63
2022-08-29T15:34:43.554Z,98631.66
2022-08-29T15:37:15.322Z,98632.13
2022-08-29T15:39:45.054Z,98628.91
2022-08-29T15:42:13.261Z,98621.72
2022-08-29T15:44:47.788Z,98633.16
2022-08-29T15:47:19.488Z,98621.72
2022-08-29T15:49:53.753Z,98619.28
2022-08-29T15:52:21.815Z,98627.44
2022-08-29T15:54:51.304Z,98622.34
2022-08-29T15:57:19.416Z,98633.59
2022-08-29T15:59:58.578Z,98621.84
2022-08-29T16:02:27.187Z,98630.81
2022-08-29T16:04:57.150Z,98624.47
2022-08-29T16:07:28.884Z,98620.19
2022-08-29T16:10:00.170Z,98618.13
2022-08-29T16:12:30.953Z,98618.72
2022-08-29T16:15:00.816Z,98622.19
2022-08-29T16:17:31.465Z,98610.38
2022-08-29T16:20:00.876Z,98599.72
2022-08-29T16:22:29.934Z,98609.53
2022-08-29T16:24:59.803Z,98608.63
2022-08-29T16:27:28.155Z,98608.19
2022-08-29T16:29:57.258Z,98611.25
2022-08-29T16:32:27.845Z,98605.41
2022-08-29T16:34:58.531Z,98604.78
2022-08-29T16:37:29.486Z,98592.53
2022-08-29T16:39:59.730Z,98603.00
2022-08-29T16:42:30.551Z,98605.09
2022-08-29T16:44:59.621Z,98608.69
2022-08-29T16:47:28.408Z,98598.25
2022-08-29T16:49:56.555Z,98593.53
2022-08-29T16:52:24.607Z,98595.47
2022-08-29T16:54:53.717Z,98602.16
2022-08-29T16:57:23.417Z,98604.28
2022-08-29T16:59:51.536Z,98603.44
2022-08-29T17:02:19.657Z,98602.47
2022-08-29T17:04:48.863Z,98595.94
2022-08-29T17:07:17.307Z,98591.06
2022-08-29T17:09:44.256Z,98597.25
2022-08-29T17:12:11.404Z,98590.72
2022-08-29T17:14:40.368Z,98595.28
2022-08-29T17:17:08.575Z,98604.19
2022-08-29T17:19:37.466Z,98604.50
2022-08-29T17:22:05.537Z,98605.75
2022-08-29T17:24:33.628Z,98609.47
2022-08-29T17:27:01.897Z,98605.38
2022-08-29T17:29:32.620Z,98601.00
2022-08-29T17:32:02.402Z,98606.28
2022-08-29T17:34:31.196Z,98600.69
2022-08-29T17:37:01.421Z,98608.44
2022-08-29T17:39:29.518Z,98612.34
2022-08-29T17:41:59.185Z,98612.94
2022-08-29T17:44:27.654Z,98611.75
2022-08-29T17:46:55.821Z,98609.25
2022-08-29T17:49:25.671Z,98606.72
2022-08-29T17:51:56.195Z,98610.88
2022-08-29T17:54:25.540Z,98611.00
2022-08-29T17:56:55.802Z,98615.50
2022-08-29T17:59:27.162Z,98611.16
2022-08-29T18:01:55.794Z,98613.22
2022-08-29T18:04:28.560Z,98619.09
2022-08-29T18:06:57.483Z,98614.72
2022-08-29T18:09:26.105Z,98613.00
2022-08-29T18:11:54.830Z,98619.41
2022-08-29T18:14:23.810Z,98607.28
2022-08-29T18:16:52.412Z,98625.66
2022-08-29T18:19:21.991Z,98626.78
2022-08-29T18:21:52.660Z,98620.13
2022-08-29T18:24:20.987Z,98617.78
2022-08-29T18:26:49.549Z,98627.28
2022-08-29T18:29:18.432Z,98629.50
2022-08-29T18:31:47.083Z,98630.84
2022-08-29T18:34:15.782Z,98633.47
2022-08-29T18:36:44.818Z,98638.88
2022-08-29T18:39:14.862Z,98638.34
2022-08-29T18:41:43.481Z,98636.69
2022-08-29T18:44:11.920Z,98641.97
2022-08-29T18:46:41.411Z,98644.72
2022-08-29T18:49:16.002Z,98639.28
2022-08-29T18:51:44.643Z,98644.97
2022-08-29T18:54:18.813Z,98648.03
2022-08-29T18:56:47.915Z,98654.13
2022-08-29T18:59:16.626Z,98657.72
2022-08-29T19:01:44.785Z,98652.56
2022-08-29T19:04:13.000Z,98658.69
2022-08-29T19:06:41.176Z,98660.72
2022-08-29T19:09:09.426Z,98662.25
2022-08-29T19:11:39.000Z,98666.00
2022-08-29T19:14:07.146Z,98664.69
2022-08-29T19:16:36.940Z,98671.31
2022-08-29T19:19:05.317Z,98663.97
2022-08-29T19:21:40.040Z,98666.50
2022-08-29T19:24:08.297Z,98666.59
2022-08-29T19:26:38.494Z,98660.41
2022-08-29T19:29:12.560Z,98671.63
2022-08-29T19:31:40.891Z,98668.66
2022-08-29T19:34:09.066Z,98665.19
2022-08-29T19:36:39.112Z,98669.59
2022-08-29T19:39:07.145Z,98664.22
2022-08-29T19:41:35.923Z,98669.41
2022-08-29T19:44:04.254Z,98671.13
2022-08-29T19:46:33.724Z,98667.06
2022-08-29T19:51:36.215Z,98673.78
2022-08-29T19:54:05.920Z,98678.59
2022-08-29T19:56:34.274Z,98683.66
2022-08-29T19:59:02.748Z,98689.63
2022-08-29T20:01:30.888Z,98688.69
2022-08-29T20:04:00.373Z,98692.38
2022-08-29T20:06:30.565Z,98686.94
2022-08-29T20:08:58.716Z,98697.00
2022-08-29T20:11:27.817Z,98693.59
2022-08-29T20:13:57.577Z,98691.38
2022-08-29T20:16:27.280Z,98701.53
2022-08-29T20:18:55.412Z,98699.81
2022-08-29T20:21:25.599Z,98696.34
2022-08-29T20:23:57.746Z,98701.72
2022-08-29T20:26:27.914Z,98696.63
2022-08-29T20:28:56.201Z,98696.75
2022-08-29T20:31:24.349Z,98702.25
2022-08-29T20:33:52.487Z,98708.38
2022-08-29T20:36:38.987Z,98707.16
2022-08-29T20:39:10.544Z,98701.63
2022-08-29T20:41:38.622Z,98710.69
2022-08-29T20:44:09.759Z,98711.19
2022-08-29T20:46:40.279Z,98694.94
2022-08-29T20:49:08.816Z,98717.13
2022-08-29T20:51:39.577Z,98705.69
2022-08-29T20:54:08.959Z,98706.25
2022-08-29T20:56:37.067Z,98719.69
2022-08-29T20:59:05.406Z,98716.03
2022-08-29T21:01:34.573Z,98720.28
2022-08-29T21:04:21.438Z,98724.13
2022-08-29T21:06:49.638Z,98730.09
2022-08-29T21:09:18.976Z,98728.91
2022-08-29T21:11:47.028Z,98721.81
2022-08-29T21:14:15.098Z,98718.28
2022-08-29T21:16:43.136Z,98724.09
2022-08-29T21:19:12.677Z,98729.47
2022-08-29T21:21:41.464Z,98727.03
2022-08-29T21:24:10.996Z,98729.34
2022-08-29T21:26:40.781Z,98732.66
2022-08-29T21:29:08.862Z,98731.81
2022-08-29T21:31:37.377Z,98735.94
2022-08-29T21:34:07.259Z,98735.69
2022-08-29T21:36:36.092Z,98737.63
2022-08-29T21:39:05.306Z,98732.69
2022-08-29T21:41:33.855Z,98732.75
2022-08-29T21:44:03.912Z,98736.03
2022-08-29T21:46:33.264Z,98732.47
2022-08-29T21:49:06.739Z,98735.31
2022-08-29T21:51:35.502Z,98735.25
2022-08-29T21:54:04.110Z,98741.06
2022-08-29T21:56:32.966Z,98732.88
2022-08-29T21:59:01.999Z,98735.34
2022-08-29T22:02:37.366Z,98726.59
2022-08-29T22:05:05.879Z,98729.59
2022-08-29T22:07:34.302Z,98736.50
2022-08-29T22:10:02.363Z,98733.16
2022-08-29T22:12:31.251Z,98729.06
2022-08-29T22:15:16.022Z,98729.09
2022-08-29T22:17:47.732Z,98727.72
2022-08-29T22:20:15.869Z,98733.47
2022-08-29T22:22:43.951Z,98736.28
2022-08-29T22:25:12.125Z,98735.47
2022-08-29T22:27:40.554Z,98737.34
2022-08-29T22:30:09.493Z,98736.25
2022-08-29T22:32:37.713Z,98738.19
2022-08-29T22:35:11.057Z,98740.31
2022-08-29T22:37:39.433Z,98744.44
2022-08-29T22:40:09.532Z,98745.72
2022-08-29T22:42:38.189Z,98757.22
2022-08-29T22:45:08.558Z,98761.28
2022-08-29T22:47:36.935Z,98767.53
2022-08-29T22:50:05.804Z,98767.25
2022-08-29T22:52:35.208Z,98778.88
2022-08-29T22:55:05.222Z,98781.31
2022-08-29T22:57:33.734Z,98780.28
2022-08-29T23:00:03.931Z,98782.06
2022-08-29T23:02:32.727Z,98781.56
2022-08-29T23:05:00.826Z,98787.81
2022-08-29T23:07:28.874Z,98778.31
2022-08-29T23:09:58.518Z,98765.53
2022-08-29T23:12:26.620Z,98749.69
2022-08-29T23:14:54.614Z,98754.59
2022-08-29T23:17:24.942Z,98765.53
2022-08-29T23:19:53.004Z,98766.00
2022-08-29T23:22:21.888Z,98775.28
2022-08-29T23:24:58.443Z,98778.59
2022-08-29T23:27:29.034Z,98784.22
2022-08-29T23:29:57.145Z,98773.28
2022-08-29T23:32:27.345Z,98777.34
2022-08-29T23:34:55.603Z,98782.19
2022-08-29T23:37:23.909Z,98782.75
2022-08-29T23:39:52.015Z,98781.88
2022-08-29T23:42:20.096Z,98786.75
2022-08-29T23:44:49.554Z,98785.91
2022-08-29T23:47:18.047Z,98791.94
2022-08-29T23:49:46.253Z,98791.88
2022-08-29T23:52:14.639Z,98793.63
2022-08-29T23:54:42.980Z,98787.66
2022-08-29T23:57:11.052Z,98779.75
2022-08-29T23:59:56.809Z,98767.56
